Time;durP1;ratioP1;P1;durP2;ratioP2;P2;SDS_P1;SDS_P2;PMS_P1;PMS_P2;Temp;Humidity;BMP_temperature;BMP_pressure;BME280_temperature;BME280_humidity;BME280_pressure;Samples;Min_cycle;Max_cycle;Signal;HPM_P1;HPM_P2
2021/10/24 00:01:34;;;;;;;5.85;4.97;;;2.10;99.90;;;;;;4936875;29;20418;-71
2021/10/24 00:04:00;;;;;;;8.10;6.05;;;2.10;99.90;;;;;;4937149;29;20083;-71
2021/10/24 00:06:27;;;;;;;6.15;5.55;;;2.00;99.90;;;;;;4937241;29;20032;-71
2021/10/24 00:08:53;;;;;;;5.53;4.78;;;1.90;99.90;;;;;;4937047;29;20039;-70
2021/10/24 00:11:19;;;;;;;5.95;5.35;;;1.90;99.90;;;;;;4936606;29;20028;-71
2021/10/24 00:13:45;;;;;;;7.38;6.20;;;2.00;99.90;;;;;;4937380;29;20469;-71
2021/10/24 00:16:12;;;;;;;5.88;5.35;;;2.00;99.90;;;;;;4935749;29;20048;-73
2021/10/24 00:18:38;;;;;;;8.75;6.60;;;2.10;99.90;;;;;;4937237;29;20036;-71
2021/10/24 00:21:04;;;;;;;6.72;5.88;;;2.00;99.90;;;;;;4936972;29;20476;-71
2021/10/24 00:23:31;;;;;;;15.52;6.30;;;2.00;99.90;;;;;;4936030;29;20481;-72
2021/10/24 00:25:57;;;;;;;10.63;6.55;;;1.90;99.90;;;;;;4937122;29;20597;-71
2021/10/24 00:28:23;;;;;;;12.43;6.28;;;1.90;99.90;;;;;;4936492;29;20036;-71
2021/10/24 00:30:51;;;;;;;8.57;7.07;;;1.90;99.90;;;;;;4936719;29;20035;-72
2021/10/24 00:33:19;;;;;;;6.20;5.63;;;1.90;99.90;;;;;;4947574;28;20040;-72
2021/10/24 00:35:46;;;;;;;6.43;5.82;;;1.70;99.90;;;;;;4936536;29;20461;-71
2021/10/24 00:38:12;;;;;;;6.53;5.93;;;1.60;99.90;;;;;;4936642;29;20028;-73
2021/10/24 00:40:39;;;;;;;6.70;5.43;;;1.50;99.90;;;;;;4936544;29;20044;-71
2021/10/24 00:43:06;;;;;;;15.57;6.82;;;1.40;99.90;;;;;;4936629;29;20063;-71
2021/10/24 00:45:32;;;;;;;6.32;5.50;;;1.40;99.90;;;;;;4935999;29;20035;-72
2021/10/24 00:47:59;;;;;;;6.70;5.85;;;1.30;99.90;;;;;;4936225;29;20028;-72
2021/10/24 00:50:26;;;;;;;7.82;6.38;;;1.40;99.90;;;;;;4936393;29;20047;-71
2021/10/24 00:52:52;;;;;;;8.10;6.05;;;1.50;99.90;;;;;;4936454;29;20051;-71
2021/10/24 00:55:22;;;;;;;6.72;5.47;;;1.50;99.90;;;;;;4968867;28;20046;-72
2021/10/24 00:57:48;;;;;;;9.45;7.03;;;1.60;99.90;;;;;;4936443;29;20054;-72
2021/10/24 01:00:14;;;;;;;6.85;6.15;;;1.50;99.90;;;;;;4936377;29;20039;-72
2021/10/24 01:02:41;;;;;;;9.18;6.00;;;1.40;99.90;;;;;;4950564;28;20065;-71
2021/10/24 01:05:09;;;;;;;6.28;5.68;;;1.30;99.90;;;;;;4935800;29;20043;-71
2021/10/24 01:07:38;;;;;;;5.80;5.28;;;1.40;99.90;;;;;;4942226;29;20059;-71
2021/10/24 01:10:05;;;;;;;9.23;5.93;;;1.50;99.90;;;;;;4950494;28;20147;-71
2021/10/24 01:12:31;;;;;;;11.73;6.13;;;1.60;99.90;;;;;;4935672;29;20027;-71
2021/10/24 01:14:58;;;;;;;7.07;6.07;;;1.60;99.90;;;;;;4936451;29;20036;-71
2021/10/24 01:17:24;;;;;;;8.82;5.88;;;1.50;99.90;;;;;;4950977;28;20055;-71
2021/10/24 01:19:51;;;;;;;6.18;5.47;;;1.50;99.90;;;;;;4951514;28;20044;-71
2021/10/24 01:22:17;;;;;;;6.43;5.72;;;1.50;99.90;;;;;;4935358;29;20389;-71
2021/10/24 01:24:43;;;;;;;5.47;4.72;;;1.60;99.90;;;;;;4934306;29;20043;-71
2021/10/24 01:27:10;;;;;;;9.02;5.35;;;1.50;99.90;;;;;;4950347;28;20491;-71
2021/10/24 01:29:37;;;;;;;9.70;5.43;;;1.50;99.90;;;;;;4935449;29;20035;-71
2021/10/24 01:32:04;;;;;;;6.72;4.80;;;1.50;99.90;;;;;;4950550;28;20052;-71
2021/10/24 01:34:30;;;;;;;5.88;5.38;;;1.40;99.90;;;;;;4949473;28;20409;-71
2021/10/24 01:36:56;;;;;;;5.90;5.30;;;1.50;99.90;;;;;;4949854;28;20055;-71
2021/10/24 01:39:23;;;;;;;8.20;5.28;;;1.50;99.90;;;;;;4935175;29;20055;-71
2021/10/24 01:41:49;;;;;;;6.18;5.57;;;1.50;99.90;;;;;;4950303;28;20055;-71
2021/10/24 01:44:16;;;;;;;6.55;5.13;;;1.40;99.90;;;;;;4933424;29;20059;-71
2021/10/24 01:46:42;;;;;;;6.57;5.18;;;1.40;99.90;;;;;;4949239;28;20043;-71
2021/10/24 01:49:09;;;;;;;5.07;4.68;;;1.40;99.90;;;;;;4949913;28;20043;-71
2021/10/24 01:51:35;;;;;;;5.07;4.57;;;1.40;99.90;;;;;;4934203;29;20058;-71
2021/10/24 01:54:02;;;;;;;5.28;4.63;;;1.30;99.90;;;;;;4949525;28;20484;-71
2021/10/24 01:56:28;;;;;;;8.68;6.32;;;1.30;99.90;;;;;;4949084;28;20393;-71
2021/10/24 01:58:54;;;;;;;5.47;4.97;;;1.20;99.90;;;;;;4935728;29;20035;-71
2021/10/24 02:01:24;;;;;;;6.60;5.15;;;1.10;99.90;;;;;;4933456;29;20054;-71
2021/10/24 02:04:18;;;;;;;7.20;5.15;;;1.10;99.90;;;;;;4933130;29;20055;-71
2021/10/24 02:07:02;;;;;;;6.57;5.68;;;1.00;99.90;;;;;;4933350;29;20043;-70
2021/10/24 02:09:29;;;;;;;5.70;5.20;;;1.00;99.90;;;;;;4935226;29;20047;-71
2021/10/24 02:11:55;;;;;;;6.30;5.72;;;0.90;99.90;;;;;;4951741;28;20531;-71
2021/10/24 02:14:22;;;;;;;6.50;5.72;;;0.90;99.90;;;;;;4952071;29;20042;-71
2021/10/24 02:16:48;;;;;;;7.43;5.88;;;0.90;99.90;;;;;;4933019;29;20040;-71
2021/10/24 02:19:15;;;;;;;5.40;4.90;;;0.90;99.90;;;;;;4948672;28;20069;-72
2021/10/24 02:21:42;;;;;;;9.82;5.35;;;0.80;99.90;;;;;;4948976;28;20067;-71
2021/10/24 02:24:09;;;;;;;7.95;5.47;;;0.90;99.90;;;;;;4933297;29;20468;-71
2021/10/24 02:26:35;;;;;;;8.40;5.88;;;0.90;99.90;;;;;;4948704;29;20043;-71
2021/10/24 02:29:02;;;;;;;5.30;4.80;;;0.90;99.90;;;;;;4935153;29;20042;-71
2021/10/24 02:31:30;;;;;;;5.13;4.72;;;0.80;99.90;;;;;;4932499;29;20043;-71
2021/10/24 02:34:08;;;;;;;4.28;3.97;;;0.80;99.90;;;;;;4949279;28;20059;-71
2021/10/24 02:36:34;;;;;;;9.27;5.80;;;0.70;99.90;;;;;;4934125;29;20047;-72
2021/10/24 02:39:04;;;;;;;6.20;5.60;;;0.70;99.90;;;;;;4927091;29;20044;-71
2021/10/24 02:41:35;;;;;;;6.95;5.90;;;0.70;99.90;;;;;;4948495;28;20300;-71
2021/10/24 02:44:01;;;;;;;9.57;7.00;;;0.80;99.90;;;;;;4949040;28;20054;-71
2021/10/24 02:46:36;;;;;;;6.72;5.25;;;0.80;99.90;;;;;;4934331;29;20508;-71
2021/10/24 02:49:09;;;;;;;6.85;5.85;;;0.70;99.90;;;;;;4934053;29;20051;-71
2021/10/24 02:51:41;;;;;;;10.77;6.97;;;0.70;99.90;;;;;;4934149;29;20047;-70
2021/10/24 02:54:07;;;;;;;7.38;4.82;;;0.60;99.90;;;;;;4949308;28;20461;-71
2021/10/24 02:56:33;;;;;;;6.35;5.53;;;0.50;99.90;;;;;;4948455;28;20626;-71
2021/10/24 02:59:01;;;;;;;7.13;5.15;;;0.50;99.90;;;;;;4937770;29;20051;-70
2021/10/24 03:01:27;;;;;;;7.47;5.40;;;0.50;99.90;;;;;;4951944;28;20044;-71
2021/10/24 03:03:53;;;;;;;5.40;4.90;;;0.40;99.90;;;;;;4938467;29;20051;-70
2021/10/24 03:06:20;;;;;;;5.38;4.88;;;0.40;99.90;;;;;;4952648;28;20047;-71
2021/10/24 03:08:46;;;;;;;7.53;5.45;;;0.40;99.90;;;;;;4938313;29;20040;-70
2021/10/24 03:11:12;;;;;;;6.15;5.10;;;0.40;99.90;;;;;;4952457;28;20044;-71
2021/10/24 03:13:39;;;;;;;7.22;5.35;;;0.40;99.90;;;;;;4943149;29;20504;-70
2021/10/24 03:16:05;;;;;;;6.25;5.38;;;0.40;99.90;;;;;;4952323;28;20055;-70
2021/10/24 03:18:32;;;;;;;5.15;4.65;;;0.40;99.90;;;;;;4951898;28;20413;-70
2021/10/24 03:20:58;;;;;;;7.00;5.68;;;0.40;99.90;;;;;;4952728;28;20043;-71
2021/10/24 03:23:24;;;;;;;7.22;5.30;;;0.40;99.90;;;;;;4951686;28;20059;-71
2021/10/24 03:25:50;;;;;;;6.35;5.85;;;0.40;99.90;;;;;;4937858;29;20028;-72
2021/10/24 03:28:17;;;;;;;5.95;5.35;;;0.40;99.90;;;;;;4935700;29;20051;-73
2021/10/24 03:30:43;;;;;;;7.47;5.85;;;0.30;99.90;;;;;;4938269;29;20123;-71
2021/10/24 03:33:09;;;;;;;7.57;5.22;;;0.30;99.90;;;;;;4952399;28;20512;-70
2021/10/24 03:35:36;;;;;;;5.63;5.03;;;0.30;99.90;;;;;;4937726;29;20047;-71
2021/10/24 03:38:03;;;;;;;6.57;5.40;;;0.20;99.90;;;;;;4938101;29;20350;-70
2021/10/24 03:40:29;;;;;;;9.85;6.38;;;0.20;99.90;;;;;;4952065;28;20433;-70
2021/10/24 03:42:55;;;;;;;6.95;5.03;;;0.20;99.90;;;;;;4952156;29;20059;-71
2021/10/24 03:45:22;;;;;;;6.20;5.57;;;0.10;99.90;;;;;;4936936;29;20039;-71
2021/10/24 03:47:48;;;;;;;6.88;5.78;;;0.20;99.90;;;;;;4951767;29;20039;-71
2021/10/24 03:50:15;;;;;;;6.50;4.88;;;0.20;99.90;;;;;;4951943;28;20047;-71
2021/10/24 03:52:41;;;;;;;6.47;5.35;;;0.20;99.90;;;;;;4936776;29;20059;-71
2021/10/24 03:55:12;;;;;;;5.90;5.30;;;0.00;99.90;;;;;;4937592;29;20054;-70
2021/10/24 03:57:39;;;;;;;6.68;5.70;;;-0.10;99.90;;;;;;4951851;28;20042;-70
2021/10/24 04:00:07;;;;;;;5.72;5.18;;;0.00;99.90;;;;;;4937238;29;20406;-71
2021/10/24 04:02:58;;;;;;;7.57;5.40;;;0.00;99.90;;;;;;4943689;28;20415;-70
2021/10/24 04:05:32;;;;;;;7.55;5.65;;;-0.10;99.90;;;;;;4951983;28;20350;-70
2021/10/24 04:07:59;;;;;;;10.50;5.32;;;-0.20;99.90;;;;;;4951756;29;20068;-71
2021/10/24 04:10:27;;;;;;;8.32;6.10;;;-0.20;99.90;;;;;;4950535;28;20052;-71
2021/10/24 04:12:56;;;;;;;7.10;6.22;;;-0.10;99.90;;;;;;4937778;29;20558;-70
2021/10/24 04:15:24;;;;;;;4.90;4.50;;;-0.10;99.90;;;;;;4936501;29;20047;-70
2021/10/24 04:17:52;;;;;;;7.20;5.57;;;-0.20;99.90;;;;;;4951752;28;20043;-71
2021/10/24 04:20:20;;;;;;;6.35;5.75;;;-0.10;99.90;;;;;;4950630;28;20050;-73
2021/10/24 04:22:48;;;;;;;6.28;5.47;;;-0.10;99.90;;;;;;4951746;28;20054;-71
2021/10/24 04:25:15;;;;;;;7.13;5.72;;;-0.10;99.90;;;;;;4951432;28;20470;-70
2021/10/24 04:27:42;;;;;;;7.28;6.53;;;-0.10;99.90;;;;;;4951252;28;20047;-70
2021/10/24 04:30:13;;;;;;;7.28;6.57;;;-0.10;99.90;;;;;;4951641;28;20051;-71
2021/10/24 04:32:41;;;;;;;8.18;6.45;;;0.00;99.90;;;;;;4936582;29;20039;-71
2021/10/24 04:35:09;;;;;;;6.50;5.97;;;-0.10;99.90;;;;;;4935275;29;20040;-70
2021/10/24 04:37:37;;;;;;;8.57;6.68;;;0.00;99.90;;;;;;4950789;28;20504;-70
2021/10/24 04:40:05;;;;;;;7.93;7.10;;;0.10;99.90;;;;;;4951145;28;20035;-70
2021/10/24 04:42:38;;;;;;;9.98;6.38;;;0.10;99.90;;;;;;4943192;29;20055;-70
2021/10/24 04:45:08;;;;;;;6.75;5.75;;;0.00;99.90;;;;;;4951067;28;20051;-71
2021/10/24 04:47:35;;;;;;;7.22;6.50;;;-0.10;99.90;;;;;;4951115;28;20043;-70
2021/10/24 04:50:03;;;;;;;7.63;6.15;;;-0.10;99.90;;;;;;4937825;29;20043;-70
2021/10/24 04:52:32;;;;;;;8.52;7.60;;;0.00;99.90;;;;;;4936517;29;20054;-71
2021/10/24 04:54:58;;;;;;;7.88;6.38;;;0.00;99.90;;;;;;4936355;29;20040;-71
2021/10/24 04:57:25;;;;;;;7.97;6.07;;;0.00;99.90;;;;;;4950275;28;20047;-70
2021/10/24 04:59:51;;;;;;;7.78;6.88;;;-0.10;99.90;;;;;;4950363;28;20051;-71
2021/10/24 05:02:17;;;;;;;10.38;6.70;;;-0.10;99.90;;;;;;4936188;29;20044;-73
2021/10/24 05:04:43;;;;;;;7.93;7.00;;;-0.10;99.90;;;;;;4936050;29;20032;-70
2021/10/24 05:07:10;;;;;;;7.25;6.10;;;-0.20;99.90;;;;;;4950664;28;20051;-70
2021/10/24 05:09:36;;;;;;;7.65;6.85;;;-0.30;99.90;;;;;;4949892;28;20554;-70
2021/10/24 05:12:03;;;;;;;11.13;6.95;;;-0.40;99.90;;;;;;4950814;28;20051;-71
2021/10/24 05:14:29;;;;;;;9.10;6.78;;;-0.40;99.90;;;;;;4958126;28;20039;-70
2021/10/24 05:16:56;;;;;;;7.80;7.00;;;-0.40;99.90;;;;;;4950139;28;20048;-70
2021/10/24 05:19:25;;;;;;;10.35;7.15;;;-0.30;99.90;;;;;;4950621;28;20409;-70
2021/10/24 05:21:51;;;;;;;8.30;7.50;;;-0.30;99.90;;;;;;4934914;29;20036;-72
2021/10/24 05:24:18;;;;;;;7.60;6.93;;;-0.30;99.90;;;;;;4944801;29;20509;-72
2021/10/24 05:26:44;;;;;;;7.85;7.15;;;-0.30;99.90;;;;;;4950086;28;20043;-71
2021/10/24 05:29:10;;;;;;;8.45;7.65;;;-0.20;99.90;;;;;;4950488;28;20044;-70
2021/10/24 05:31:38;;;;;;;7.80;7.07;;;-0.30;99.90;;;;;;4949759;28;20638;-70
2021/10/24 05:34:14;;;;;;;9.38;7.75;;;-0.40;99.90;;;;;;4934408;29;20393;-70
2021/10/24 05:37:15;;;;;;;8.10;7.10;;;-0.40;99.90;;;;;;4932166;29;20402;-70
2021/10/24 05:39:42;;;;;;;10.07;7.65;;;-0.50;99.90;;;;;;4935049;29;20146;-70
2021/10/24 05:42:27;;;;;;;8.70;7.80;;;-0.50;99.90;;;;;;4934758;29;20393;-71
2021/10/24 05:44:54;;;;;;;9.23;7.57;;;-0.50;99.90;;;;;;4949947;28;20047;-70
2021/10/24 05:47:20;;;;;;;8.48;6.93;;;-0.50;99.90;;;;;;4944695;29;20437;-73
2021/10/24 05:49:48;;;;;;;9.98;7.75;;;-0.40;99.90;;;;;;4949546;29;20036;-70
2021/10/24 05:52:22;;;;;;;8.02;7.18;;;-0.40;99.90;;;;;;4933713;29;20054;-72
2021/10/24 05:54:49;;;;;;;10.80;7.90;;;-0.30;99.90;;;;;;4934490;29;20051;-70
2021/10/24 05:57:21;;;;;;;10.90;8.23;;;-0.40;99.90;;;;;;4949170;28;20048;-73
2021/10/24 06:00:13;;;;;;;9.20;8.18;;;-0.30;99.90;;;;;;4935695;29;20100;-70
2021/10/24 06:02:46;;;;;;;9.43;8.10;;;-0.40;99.90;;;;;;4941318;28;20062;-70
2021/10/24 06:05:32;;;;;;;9.25;8.25;;;-0.40;99.90;;;;;;4941140;28;20055;-70
2021/10/24 06:07:58;;;;;;;9.15;8.23;;;-0.40;99.90;;;;;;4949918;28;20043;-70
2021/10/24 06:10:31;;;;;;;9.23;7.13;;;-0.40;99.90;;;;;;4948966;28;20044;-70
2021/10/24 06:12:58;;;;;;;8.98;8.07;;;-0.40;99.90;;;;;;4935319;29;20488;-70
2021/10/24 06:15:25;;;;;;;11.88;10.50;;;-0.40;99.90;;;;;;4934919;29;20036;-70
2021/10/24 06:17:52;;;;;;;11.73;10.48;;;-0.30;99.90;;;;;;4935160;29;20512;-70
2021/10/24 06:20:20;;;;;;;13.68;12.25;;;-0.30;99.90;;;;;;4944165;29;20481;-72
2021/10/24 06:22:47;;;;;;;11.35;10.27;;;-0.30;99.90;;;;;;4935096;29;20047;-70
2021/10/24 06:25:15;;;;;;;14.35;12.80;;;-0.30;99.90;;;;;;4933461;29;20481;-70
2021/10/24 06:27:45;;;;;;;15.95;14.45;;;-0.10;99.90;;;;;;4949188;28;20035;-70
2021/10/24 06:30:14;;;;;;;16.35;14.35;;;-0.20;99.90;;;;;;4949535;28;20046;-71
2021/10/24 06:32:59;;;;;;;14.70;10.55;;;-0.20;99.90;;;;;;4934792;29;20503;-70
2021/10/24 06:35:45;;;;;;;9.10;8.30;;;-0.20;99.90;;;;;;4930369;29;20046;-71
2021/10/24 06:38:34;;;;;;;10.88;7.03;;;-0.10;99.90;;;;;;4934137;29;20047;-71
2021/10/24 06:41:14;;;;;;;9.43;8.43;;;-0.10;99.90;;;;;;4934505;29;20042;-71
2021/10/24 06:43:50;;;;;;;7.82;7.03;;;-0.20;99.90;;;;;;4934958;29;20059;-71
2021/10/24 06:46:57;;;;;;;7.72;6.32;;;-0.10;99.90;;;;;;4908460;29;20052;-71
2021/10/24 06:49:33;;;;;;;11.50;7.93;;;-0.10;99.90;;;;;;4911960;29;20409;-71
2021/10/24 06:52:19;;;;;;;7.13;6.40;;;0.00;99.90;;;;;;4934107;28;20052;-71
2021/10/24 06:54:59;;;;;;;9.20;7.82;;;0.10;99.90;;;;;;4949117;28;20055;-72
2021/10/24 06:57:53;;;;;;;9.82;7.47;;;0.30;99.90;;;;;;4934388;29;20040;-71
2021/10/24 07:00:38;;;;;;;8.93;8.15;;;0.40;99.90;;;;;;4940774;29;20362;-71
2021/10/24 07:03:23;;;;;;;12.25;7.70;;;0.50;99.90;;;;;;4940715;29;20051;-72
2021/10/24 07:06:08;;;;;;;8.23;7.50;;;0.60;99.90;;;;;;4940056;29;20404;-71
2021/10/24 07:08:54;;;;;;;9.25;8.27;;;0.80;99.90;;;;;;4934824;29;20035;-72
2021/10/24 07:11:20;;;;;;;7.75;6.90;;;0.90;99.90;;;;;;4934392;29;20051;-74
2021/10/24 07:13:47;;;;;;;8.18;7.43;;;1.00;99.90;;;;;;4934606;29;20055;-71
2021/10/24 07:16:14;;;;;;;8.00;7.30;;;1.20;99.90;;;;;;4933516;29;20054;-71
2021/10/24 07:18:40;;;;;;;9.27;8.40;;;1.40;99.90;;;;;;4934069;29;20028;-71
2021/10/24 07:21:06;;;;;;;7.43;6.75;;;1.80;99.90;;;;;;4933525;29;20056;-72
2021/10/24 07:23:32;;;;;;;8.25;7.45;;;2.40;99.90;;;;;;4938553;29;20056;-73
2021/10/24 07:26:28;;;;;;;8.25;7.43;;;3.10;99.90;;;;;;4943733;29;20524;-73
2021/10/24 07:28:54;;;;;;;6.80;5.93;;;3.60;99.90;;;;;;4934549;29;20035;-73
2021/10/24 07:31:22;;;;;;;7.43;5.60;;;3.80;99.90;;;;;;4948116;28;20481;-75
2021/10/24 07:34:08;;;;;;;5.82;5.32;;;4.00;99.90;;;;;;4934123;29;20083;-73
2021/10/24 07:36:42;;;;;;;6.60;5.47;;;4.10;99.90;;;;;;4948451;28;20059;-73
2021/10/24 07:39:08;;;;;;;6.10;5.50;;;4.30;99.90;;;;;;4948627;29;20039;-73
2021/10/24 07:41:34;;;;;;;6.28;5.68;;;4.70;99.90;;;;;;4933651;29;20050;-73
2021/10/24 07:44:01;;;;;;;9.00;5.95;;;5.00;99.90;;;;;;4933468;29;20056;-73
2021/10/24 07:46:28;;;;;;;9.82;5.32;;;5.50;99.90;;;;;;4951732;28;20055;-73
2021/10/24 07:48:56;;;;;;;5.50;4.05;;;6.00;99.90;;;;;;4952051;28;20070;-73
2021/10/24 07:51:22;;;;;;;4.70;3.75;;;6.20;99.90;;;;;;4951884;28;20059;-76
2021/10/24 07:53:52;;;;;;;6.28;4.13;;;6.20;99.90;;;;;;4939678;29;20050;-73
2021/10/24 07:56:19;;;;;;;5.40;4.47;;;6.10;99.90;;;;;;4954931;28;20047;-73
2021/10/24 07:59:09;;;;;;;6.75;3.97;;;6.20;99.90;;;;;;4956464;29;20047;-73
2021/10/24 08:01:37;;;;;;;6.28;4.90;;;6.30;99.90;;;;;;4949599;28;20047;-73
2021/10/24 08:04:07;;;;;;;4.15;3.85;;;6.60;99.90;;;;;;4951429;29;20397;-73
2021/10/24 08:06:37;;;;;;;5.20;4.35;;;6.70;98.70;;;;;;4951259;28;20043;-74
2021/10/24 08:09:09;;;;;;;5.18;3.58;;;7.00;98.50;;;;;;4949803;29;20039;-73
2021/10/24 08:11:39;;;;;;;6.10;3.80;;;7.00;97.20;;;;;;4947497;29;20047;-74
2021/10/24 08:14:07;;;;;;;5.82;4.63;;;7.20;97.30;;;;;;4977168;28;20043;-74
2021/10/24 08:16:39;;;;;;;10.55;3.45;;;7.30;96.60;;;;;;4966294;28;20043;-74
2021/10/24 08:19:08;;;;;;;4.40;3.90;;;7.10;96.30;;;;;;4961950;28;20050;-75
2021/10/24 08:21:43;;;;;;;4.47;3.88;;;7.40;96.30;;;;;;4964977;28;20245;-74
2021/10/24 08:24:10;;;;;;;3.72;3.38;;;7.80;95.10;;;;;;4968463;28;20054;-75
2021/10/24 08:26:44;;;;;;;6.22;4.22;;;8.00;94.10;;;;;;4941110;29;20216;-74
2021/10/24 08:29:11;;;;;;;4.95;3.63;;;8.80;92.40;;;;;;4960280;28;20050;-75
2021/10/24 08:31:58;;;;;;;5.28;3.72;;;9.40;90.90;;;;;;4950143;28;20039;-73
2021/10/24 08:34:24;;;;;;;8.23;4.20;;;9.40;89.30;;;;;;4954283;28;20390;-76
2021/10/24 08:36:51;;;;;;;5.18;3.15;;;9.40;87.40;;;;;;4951959;29;20027;-74
2021/10/24 08:39:17;;;;;;;4.38;3.45;;;9.70;86.90;;;;;;4964745;28;20373;-73
2021/10/24 08:41:47;;;;;;;3.63;3.05;;;9.70;85.50;;;;;;4952760;29;20541;-73
2021/10/24 08:44:14;;;;;;;3.47;3.17;;;10.00;84.10;;;;;;4960744;28;20046;-74
2021/10/24 08:46:40;;;;;;;3.63;2.80;;;10.40;80.60;;;;;;4960735;28;20760;-74
2021/10/24 08:49:09;;;;;;;4.93;2.90;;;10.00;81.30;;;;;;4949221;28;20027;-71
2021/10/24 08:51:38;;;;;;;3.03;2.72;;;10.10;80.50;;;;;;4944379;29;20047;-71
2021/10/24 08:54:07;;;;;;;3.55;2.83;;;9.90;81.10;;;;;;4965015;28;20047;-71
2021/10/24 08:56:34;;;;;;;4.85;2.50;;;9.90;81.30;;;;;;4939002;29;20046;-71
2021/10/24 08:59:01;;;;;;;6.22;2.90;;;10.60;80.10;;;;;;4948300;29;20461;-72
2021/10/24 09:01:28;;;;;;;2.80;2.35;;;11.30;76.60;;;;;;4936795;28;20050;-72
2021/10/24 09:04:12;;;;;;;3.13;1.95;;;12.10;74.80;;;;;;4940280;28;20084;-72
2021/10/24 09:06:56;;;;;;;7.60;2.88;;;11.80;71.30;;;;;;4935444;29;20043;-71
2021/10/24 09:09:29;;;;;;;2.60;2.15;;;12.20;71.00;;;;;;4935789;29;20370;-72
2021/10/24 09:11:57;;;;;;;3.15;2.80;;;11.60;74.10;;;;;;4936045;29;20469;-73
2021/10/24 09:14:48;;;;;;;3.60;2.53;;;10.70;78.10;;;;;;4936075;29;20039;-76
2021/10/24 09:17:20;;;;;;;2.92;2.63;;;10.50;78.40;;;;;;4936070;29;20044;-74
2021/10/24 09:19:51;;;;;;;3.38;3.08;;;10.40;80.00;;;;;;4935711;29;20318;-74
2021/10/24 09:22:28;;;;;;;4.75;3.40;;;9.90;81.40;;;;;;4935884;29;20032;-75
2021/10/24 09:25:01;;;;;;;2.97;2.67;;;9.80;81.50;;;;;;4951346;29;20058;-73
2021/10/24 09:27:43;;;;;;;3.95;3.05;;;9.50;80.40;;;;;;4945700;29;20035;-74
2021/10/24 09:30:14;;;;;;;4.53;3.42;;;9.60;80.80;;;;;;4935420;29;20036;-76
2021/10/24 09:32:52;;;;;;;3.67;3.03;;;9.40;81.60;;;;;;4935312;29;20035;-74
2021/10/24 09:35:22;;;;;;;4.38;2.83;;;9.50;82.20;;;;;;4935655;29;20035;-73
2021/10/24 09:38:24;;;;;;;3.40;2.95;;;9.50;80.30;;;;;;4909332;29;20184;-73
2021/10/24 09:40:58;;;;;;;9.27;3.45;;;9.60;80.20;;;;;;4935928;28;20400;-73
2021/10/24 09:43:30;;;;;;;3.97;3.47;;;9.60;78.10;;;;;;4933849;29;20071;-73
2021/10/24 09:45:57;;;;;;;6.43;2.78;;;9.70;79.00;;;;;;4935464;29;20388;-72
2021/10/24 09:48:25;;;;;;;4.60;3.67;;;9.80;78.70;;;;;;4935817;29;20039;-75
2021/10/24 09:50:56;;;;;;;4.68;2.83;;;9.80;78.90;;;;;;4935686;29;20035;-74
2021/10/24 09:53:31;;;;;;;6.25;2.92;;;9.90;77.90;;;;;;4950257;28;20044;-72
2021/10/24 09:55:57;;;;;;;4.43;2.83;;;10.00;77.90;;;;;;4935994;29;20043;-72
2021/10/24 09:58:42;;;;;;;4.40;2.95;;;10.10;77.90;;;;;;4934950;29;20032;-75
2021/10/24 10:01:13;;;;;;;3.60;3.08;;;10.20;77.60;;;;;;4956120;28;20054;-74
2021/10/24 10:03:43;;;;;;;7.55;3.58;;;10.20;78.20;;;;;;4939904;29;20058;-74
2021/10/24 10:06:10;;;;;;;4.30;3.20;;;10.40;77.00;;;;;;4947233;29;20448;-74
2021/10/24 10:08:43;;;;;;;3.38;2.92;;;10.40;76.40;;;;;;4942404;28;20658;-74
2021/10/24 10:11:24;;;;;;;5.97;2.60;;;10.50;74.30;;;;;;4943220;29;20038;-74
2021/10/24 10:14:21;;;;;;;4.93;4.05;;;10.70;72.50;;;;;;4934842;29;20369;-73
2021/10/24 10:16:58;;;;;;;5.32;3.53;;;11.10;70.00;;;;;;4930385;29;20055;-73
2021/10/24 10:19:33;;;;;;;2.70;2.45;;;11.40;69.50;;;;;;4934318;29;20054;-74
2021/10/24 10:22:21;;;;;;;8.07;2.80;;;11.60;69.80;;;;;;4935200;29;20063;-74
2021/10/24 10:25:04;;;;;;;4.15;3.05;;;11.80;67.70;;;;;;4934741;29;20056;-72
2021/10/24 10:27:34;;;;;;;3.97;3.13;;;11.70;66.60;;;;;;4935622;29;20389;-73
2021/10/24 10:30:02;;;;;;;11.57;2.75;;;11.80;68.20;;;;;;4936207;29;20063;-72
2021/10/24 10:32:34;;;;;;;5.35;3.05;;;11.90;66.60;;;;;;4935516;29;20043;-73
2021/10/24 10:35:05;;;;;;;3.45;2.60;;;12.00;66.60;;;;;;4934972;29;20040;-73
2021/10/24 10:37:55;;;;;;;6.10;2.38;;;12.10;66.80;;;;;;4934759;29;20031;-73
2021/10/24 10:40:24;;;;;;;5.68;2.70;;;12.20;65.00;;;;;;4939958;29;20361;-73
2021/10/24 10:42:53;;;;;;;3.92;2.33;;;12.30;66.80;;;;;;4934820;29;20102;-72
2021/10/24 10:45:21;;;;;;;3.78;1.85;;;12.10;65.90;;;;;;4934845;29;20047;-73
2021/10/24 10:47:58;;;;;;;2.45;1.60;;;12.30;66.10;;;;;;4934228;29;20035;-73
2021/10/24 10:50:31;;;;;;;4.20;2.65;;;12.60;64.60;;;;;;4935181;29;20039;-75
2021/10/24 10:52:59;;;;;;;8.88;2.08;;;12.80;63.50;;;;;;4934836;29;20389;-73
2021/10/24 10:55:28;;;;;;;4.10;1.85;;;12.80;64.00;;;;;;4934855;29;20046;-74
2021/10/24 10:57:54;;;;;;;5.90;2.22;;;12.70;64.60;;;;;;4935017;29;20040;-74
2021/10/24 11:00:41;;;;;;;4.88;2.13;;;13.00;64.00;;;;;;4934704;29;20032;-73
2021/10/24 11:03:08;;;;;;;3.17;2.05;;;13.10;62.00;;;;;;4934532;29;20054;-72
2021/10/24 11:05:41;;;;;;;4.95;2.33;;;12.90;63.10;;;;;;4934505;29;20031;-73
2021/10/24 11:08:46;;;;;;;3.65;2.33;;;13.00;63.50;;;;;;4945366;29;20380;-73
2021/10/24 11:11:12;;;;;;;2.50;1.73;;;13.00;62.40;;;;;;4935975;29;20481;-73
2021/10/24 11:13:38;;;;;;;2.72;2.47;;;13.00;61.90;;;;;;4934756;29;20493;-72
2021/10/24 11:16:37;;;;;;;4.70;3.30;;;13.20;63.00;;;;;;4934323;29;20052;-73
2021/10/24 11:19:29;;;;;;;5.18;2.53;;;13.20;62.80;;;;;;4949260;28;20501;-74
2021/10/24 11:22:04;;;;;;;2.05;1.70;;;13.20;61.20;;;;;;4952710;28;20046;-73
2021/10/24 11:24:53;;;;;;;2.63;1.83;;;13.30;60.30;;;;;;4952050;28;20051;-74
2021/10/24 11:27:28;;;;;;;8.77;2.03;;;13.40;60.20;;;;;;4938020;29;20039;-74
2021/10/24 11:30:04;;;;;;;3.30;1.63;;;13.50;59.40;;;;;;4936977;29;20050;-73
2021/10/24 11:32:39;;;;;;;1.73;1.42;;;13.50;59.70;;;;;;4936798;29;20036;-73
2021/10/24 11:35:09;;;;;;;2.00;1.33;;;13.40;60.00;;;;;;4950641;29;20039;-72
2021/10/24 11:37:37;;;;;;;9.45;1.40;;;13.50;60.30;;;;;;4947316;29;20031;-73
2021/10/24 11:40:07;;;;;;;2.15;1.80;;;13.70;59.40;;;;;;4938406;29;20028;-73
2021/10/24 11:42:34;;;;;;;1.52;1.40;;;13.50;59.30;;;;;;4938201;29;20047;-73
2021/10/24 11:45:19;;;;;;;2.30;1.70;;;13.60;59.40;;;;;;4937767;29;20058;-73
2021/10/24 11:48:03;;;;;;;4.88;2.08;;;13.80;58.90;;;;;;4936625;29;20036;-73
2021/10/24 11:50:47;;;;;;;2.22;1.83;;;13.70;59.00;;;;;;4951750;28;20055;-76
2021/10/24 11:53:32;;;;;;;10.82;1.60;;;13.70;58.90;;;;;;4937907;29;20039;-73
2021/10/24 11:56:36;;;;;;;3.95;1.42;;;13.80;58.40;;;;;;4937183;29;20036;-73
2021/10/24 11:59:18;;;;;;;11.90;1.95;;;13.80;58.60;;;;;;4937699;29;20031;-72
2021/10/24 12:01:44;;;;;;;3.88;2.28;;;13.80;58.70;;;;;;4935749;29;20043;-73
2021/10/24 12:04:12;;;;;;;3.60;1.70;;;13.80;59.40;;;;;;4937626;29;20056;-73
2021/10/24 12:06:53;;;;;;;6.20;2.72;;;13.70;59.10;;;;;;4937616;29;20042;-72
2021/10/24 12:09:45;;;;;;;4.80;1.83;;;13.90;59.10;;;;;;4937322;29;20489;-73
2021/10/24 12:12:13;;;;;;;1.77;1.58;;;13.90;59.10;;;;;;4938042;29;20489;-73
2021/10/24 12:14:51;;;;;;;1.73;1.38;;;14.10;59.00;;;;;;4936923;29;20035;-73
2021/10/24 12:17:32;;;;;;;2.63;1.73;;;14.20;58.90;;;;;;4937490;29;20051;-73
2021/10/24 12:20:22;;;;;;;3.35;2.13;;;14.00;59.30;;;;;;4945185;29;20035;-72
2021/10/24 12:22:52;;;;;;;2.35;1.88;;;14.00;58.60;;;;;;4936895;29;20032;-73
2021/10/24 12:25:54;;;;;;;2.08;1.63;;;14.00;59.10;;;;;;4936918;29;20062;-73
2021/10/24 12:28:29;;;;;;;2.67;1.92;;;14.00;59.20;;;;;;4936874;29;20043;-73
2021/10/24 12:31:17;;;;;;;2.70;1.67;;;14.10;58.80;;;;;;4936520;29;20028;-72
2021/10/24 12:33:45;;;;;;;1.48;1.38;;;14.20;58.40;;;;;;4936811;29;20043;-73
2021/10/24 12:36:32;;;;;;;3.30;1.95;;;14.20;57.20;;;;;;4936863;29;20043;-73
2021/10/24 12:39:07;;;;;;;2.05;1.42;;;14.10;58.30;;;;;;4937027;29;20047;-73
2021/10/24 12:41:47;;;;;;;4.57;3.45;;;13.90;59.40;;;;;;4935273;29;20031;-73
2021/10/24 12:44:22;;;;;;;4.32;2.13;;;14.00;59.90;;;;;;4936919;29;20040;-72
2021/10/24 12:46:52;;;;;;;4.40;2.67;;;14.20;58.70;;;;;;4936292;29;20043;-73
2021/10/24 12:49:21;;;;;;;4.33;2.50;;;14.30;58.90;;;;;;4953496;29;20384;-72
2021/10/24 12:51:50;;;;;;;3.33;2.03;;;14.30;59.20;;;;;;4939937;29;20058;-73
2021/10/24 12:54:30;;;;;;;1.83;1.73;;;14.10;59.30;;;;;;4936673;29;20051;-72
2021/10/24 12:56:57;;;;;;;2.72;1.98;;;14.10;58.90;;;;;;4936794;29;20034;-73
2021/10/24 12:59:24;;;;;;;13.43;2.53;;;14.20;59.50;;;;;;4936345;29;20050;-73
2021/10/24 13:01:51;;;;;;;2.38;1.55;;;14.30;59.00;;;;;;4936148;29;20035;-73
2021/10/24 13:04:18;;;;;;;1.58;1.30;;;14.30;58.80;;;;;;4936375;29;20050;-73
2021/10/24 13:06:45;;;;;;;2.90;1.83;;;14.40;59.40;;;;;;4935606;29;20039;-73
2021/10/24 13:09:11;;;;;;;2.35;1.50;;;14.40;58.50;;;;;;4943255;29;20031;-73
2021/10/24 13:11:38;;;;;;;5.68;2.35;;;14.10;58.60;;;;;;4936211;29;20458;-73
2021/10/24 13:14:04;;;;;;;13.73;3.63;;;14.10;59.00;;;;;;4950949;28;20043;-73